Time;durP1;ratioP1;P1;durP2;ratioP2;P2;SDS_P1;SDS_P2;PMS_P1;PMS_P2;Temp;Humidity;BMP_temperature;BMP_pressure;BME280_temperature;BME280_humidity;BME280_pressure;Samples;Min_cycle;Max_cycle;Signal;HPM_P1;HPM_P2
2023/06/16 00:00:01;;;;;;;9.38;5.85;;;17.30;99.90;;;;;;4199503;28;20084;-85
2023/06/16 00:02:04;;;;;;;8.73;5.75;;;17.20;99.90;;;;;;4200212;28;20051;-84
2023/06/16 00:04:05;;;;;;;9.73;5.40;;;17.20;99.90;;;;;;4182630;28;20103;-84
2023/06/16 00:06:12;;;;;;;9.00;5.50;;;17.20;99.90;;;;;;4199962;28;20123;-85
2023/06/16 00:08:14;;;;;;;11.13;5.22;;;17.20;99.90;;;;;;4199234;28;20052;-84
2023/06/16 00:10:15;;;;;;;9.35;5.72;;;17.20;99.90;;;;;;4181981;28;20413;-85
2023/06/16 00:12:16;;;;;;;7.75;5.80;;;17.10;99.90;;;;;;4198117;28;20087;-86
2023/06/16 00:14:17;;;;;;;8.75;5.85;;;17.10;99.90;;;;;;4200385;28;20048;-85
2023/06/16 00:16:19;;;;;;;7.55;5.80;;;17.10;99.90;;;;;;4209327;28;20097;-85
2023/06/16 00:18:23;;;;;;;8.45;5.18;;;17.10;99.90;;;;;;4200578;28;20044;-85
2023/06/16 00:20:26;;;;;;;8.40;5.28;;;17.00;99.90;;;;;;4199823;28;20044;-85
2023/06/16 00:22:27;;;;;;;7.00;5.13;;;17.00;99.90;;;;;;4199142;28;20572;-86
2023/06/16 00:24:28;;;;;;;10.57;5.70;;;17.00;99.90;;;;;;4202300;28;20040;-85
2023/06/16 00:26:37;;;;;;;6.75;4.90;;;17.00;99.90;;;;;;4202115;28;20591;-85
2023/06/16 00:28:38;;;;;;;7.90;5.75;;;17.00;99.90;;;;;;4212300;28;20400;-84
2023/06/16 00:30:39;;;;;;;6.88;4.65;;;16.90;99.90;;;;;;4199844;28;20362;-84
2023/06/16 00:32:40;;;;;;;18.70;6.97;;;16.90;99.90;;;;;;4199034;28;20044;-85
2023/06/16 00:34:41;;;;;;;8.60;5.65;;;16.90;99.90;;;;;;4181100;28;20124;-85
2023/06/16 00:36:42;;;;;;;8.40;5.25;;;16.90;99.90;;;;;;4198836;28;20056;-84
2023/06/16 00:38:43;;;;;;;7.53;5.00;;;16.80;99.90;;;;;;4199534;28;20416;-84
2023/06/16 00:40:44;;;;;;;7.35;4.90;;;16.80;99.90;;;;;;4199583;28;20068;-84
2023/06/16 00:42:44;;;;;;;7.35;5.25;;;16.90;99.90;;;;;;4199733;28;20037;-84
2023/06/16 00:44:45;;;;;;;9.18;6.40;;;16.80;99.90;;;;;;4200654;28;20446;-85
2023/06/16 00:46:46;;;;;;;6.93;5.07;;;16.90;99.90;;;;;;4199964;28;20044;-85
2023/06/16 00:48:47;;;;;;;6.68;5.15;;;16.80;99.90;;;;;;4199490;28;20044;-85
2023/06/16 00:50:48;;;;;;;8.90;4.80;;;16.90;99.90;;;;;;4180914;28;20485;-85
2023/06/16 00:52:49;;;;;;;9.73;5.15;;;16.90;99.90;;;;;;4198905;28;20090;-85
2023/06/16 00:54:51;;;;;;;7.53;5.95;;;16.90;99.90;;;;;;4181332;28;20115;-85
2023/06/16 00:56:52;;;;;;;8.35;5.43;;;16.80;99.90;;;;;;4181296;28;20049;-85
2023/06/16 00:58:53;;;;;;;8.95;5.20;;;16.80;99.90;;;;;;4199383;28;20040;-84
2023/06/16 01:00:55;;;;;;;8.70;5.35;;;16.80;99.90;;;;;;4181022;28;20048;-85
2023/06/16 01:02:56;;;;;;;7.00;4.80;;;16.80;99.90;;;;;;4181558;28;20041;-85
2023/06/16 01:04:57;;;;;;;8.25;5.35;;;16.80;99.90;;;;;;4198954;28;20049;-85
2023/06/16 01:07:11;;;;;;;6.78;4.88;;;16.70;99.90;;;;;;4180902;28;20543;-85
2023/06/16 01:09:15;;;;;;;7.35;5.25;;;16.70;99.90;;;;;;4200136;28;20190;-85
2023/06/16 01:11:19;;;;;;;8.50;5.72;;;16.60;99.90;;;;;;4198959;28;20556;-84
2023/06/16 01:13:46;;;;;;;6.70;4.88;;;16.60;99.90;;;;;;4182231;28;20113;-85
2023/06/16 01:15:47;;;;;;;10.77;5.78;;;16.60;99.90;;;;;;4158361;28;20098;-84
2023/06/16 01:17:50;;;;;;;7.00;4.80;;;16.50;99.90;;;;;;4201196;28;20046;-85
2023/06/16 01:20:01;;;;;;;9.02;5.25;;;16.50;99.90;;;;;;4198888;28;20147;-85
2023/06/16 01:22:12;;;;;;;9.68;5.53;;;16.50;99.90;;;;;;4216093;28;20408;-85
2023/06/16 01:24:18;;;;;;;6.93;5.57;;;16.50;99.90;;;;;;4197452;28;20084;-85
2023/06/16 01:26:22;;;;;;;8.73;5.50;;;16.50;99.90;;;;;;4215814;28;20087;-85
2023/06/16 01:28:26;;;;;;;9.13;5.82;;;16.40;99.90;;;;;;4214752;28;20434;-84
2023/06/16 01:30:30;;;;;;;6.95;5.18;;;16.40;99.90;;;;;;4215460;28;20426;-84
2023/06/16 01:32:32;;;;;;;8.90;5.15;;;16.40;99.90;;;;;;4197789;28;20037;-84
2023/06/16 01:34:35;;;;;;;7.68;6.03;;;16.40;99.90;;;;;;4214919;28;20058;-87
2023/06/16 01:36:39;;;;;;;7.80;5.43;;;16.30;99.90;;;;;;4197791;28;20060;-87
2023/06/16 01:38:43;;;;;;;8.43;5.07;;;16.30;99.90;;;;;;4215655;28;20047;-86
2023/06/16 01:40:44;;;;;;;10.57;6.25;;;16.20;99.90;;;;;;4198410;28;20048;-87
2023/06/16 01:42:49;;;;;;;8.00;5.47;;;16.20;99.90;;;;;;4198664;28;20076;-87
2023/06/16 01:44:51;;;;;;;10.02;5.57;;;16.20;99.90;;;;;;4215375;28;20097;-87
2023/06/16 01:46:52;;;;;;;8.10;5.88;;;16.10;99.90;;;;;;4216222;28;20048;-87
2023/06/16 01:48:53;;;;;;;11.23;6.07;;;16.10;99.90;;;;;;4196891;28;20048;-87
2023/06/16 01:50:54;;;;;;;8.68;5.63;;;16.10;99.90;;;;;;4198897;28;20048;-87
2023/06/16 01:52:59;;;;;;;7.78;6.22;;;16.00;99.90;;;;;;4215312;28;20048;-87
2023/06/16 01:54:59;;;;;;;9.02;6.30;;;16.00;99.90;;;;;;4196892;28;20055;-87
2023/06/16 01:57:00;;;;;;;8.18;5.30;;;15.90;99.90;;;;;;4215757;28;20044;-87
2023/06/16 01:59:01;;;;;;;8.05;5.78;;;15.90;99.90;;;;;;4214907;28;20078;-87
2023/06/16 02:01:09;;;;;;;7.47;5.97;;;15.90;99.90;;;;;;4180996;28;20053;-87
2023/06/16 02:03:36;;;;;;;11.50;6.32;;;15.80;99.90;;;;;;4196900;28;20131;-86
2023/06/16 02:05:40;;;;;;;10.30;6.25;;;15.80;99.90;;;;;;4159199;28;20048;-87
2023/06/16 02:07:44;;;;;;;10.88;6.40;;;15.80;99.90;;;;;;4198268;28;20048;-86
2023/06/16 02:09:52;;;;;;;9.68;6.45;;;15.70;99.90;;;;;;4197419;28;20049;-86
2023/06/16 02:11:54;;;;;;;8.73;5.47;;;15.70;99.90;;;;;;4215220;28;20052;-86
2023/06/16 02:13:55;;;;;;;9.07;6.70;;;15.70;99.90;;;;;;4218036;28;20553;-86
2023/06/16 02:15:56;;;;;;;9.35;6.75;;;15.60;99.90;;;;;;4200083;28;20044;-86
2023/06/16 02:17:57;;;;;;;8.48;6.22;;;15.60;99.90;;;;;;4184737;28;20041;-86
2023/06/16 02:19:58;;;;;;;11.88;7.07;;;15.70;99.90;;;;;;4200327;28;20053;-86
2023/06/16 02:22:00;;;;;;;9.25;6.35;;;15.60;99.90;;;;;;4219542;28;20059;-86
2023/06/16 02:24:04;;;;;;;9.60;6.57;;;15.60;99.90;;;;;;4201280;28;20110;-86
2023/06/16 02:26:08;;;;;;;10.13;6.82;;;15.60;99.90;;;;;;4218661;28;20044;-87
2023/06/16 02:28:09;;;;;;;13.93;7.45;;;15.60;99.90;;;;;;4184758;28;20049;-87
2023/06/16 02:30:13;;;;;;;14.55;7.93;;;15.60;99.90;;;;;;4199932;28;20516;-86
2023/06/16 02:32:13;;;;;;;8.93;6.95;;;15.60;99.90;;;;;;4184348;28;20049;-86
2023/06/16 02:34:20;;;;;;;9.90;7.13;;;15.60;99.90;;;;;;4200174;28;20083;-86
2023/06/16 02:36:21;;;;;;;13.07;7.55;;;15.60;99.90;;;;;;4218142;28;20044;-87
2023/06/16 02:38:24;;;;;;;11.73;8.40;;;15.50;99.90;;;;;;4219543;28;20500;-86
2023/06/16 02:40:25;;;;;;;10.80;7.85;;;15.50;99.90;;;;;;4183468;28;20087;-87
2023/06/16 02:42:26;;;;;;;14.40;8.05;;;15.50;99.90;;;;;;4219519;28;20048;-86
2023/06/16 02:44:30;;;;;;;11.27;8.02;;;15.50;99.90;;;;;;4217874;28;20044;-86
2023/06/16 02:46:30;;;;;;;10.68;7.55;;;15.50;99.90;;;;;;4219422;28;20048;-86
2023/06/16 02:48:31;;;;;;;10.90;7.65;;;15.40;99.90;;;;;;4200304;28;20063;-85
2023/06/16 02:50:32;;;;;;;11.75;7.80;;;15.40;99.90;;;;;;4200775;28;20605;-86
2023/06/16 02:52:33;;;;;;;10.63;7.63;;;15.40;99.90;;;;;;4219024;28;20465;-86
2023/06/16 02:54:34;;;;;;;11.43;8.30;;;15.30;99.90;;;;;;4199678;28;20056;-86
2023/06/16 02:56:36;;;;;;;12.07;7.82;;;15.20;99.90;;;;;;4184338;28;20406;-86
2023/06/16 02:58:37;;;;;;;12.43;7.57;;;15.20;99.90;;;;;;4199615;28;20090;-87
2023/06/16 03:00:38;;;;;;;11.82;7.97;;;15.10;99.90;;;;;;4200890;28;20052;-87
2023/06/16 03:02:42;;;;;;;11.30;8.50;;;15.10;99.90;;;;;;4218181;28;20488;-87
2023/06/16 03:04:42;;;;;;;12.73;8.93;;;15.10;99.90;;;;;;4200314;28;20044;-86
2023/06/16 03:06:44;;;;;;;11.85;8.82;;;15.10;99.90;;;;;;4217241;28;20040;-86
2023/06/16 03:08:45;;;;;;;13.38;8.05;;;15.10;99.90;;;;;;4182184;28;20152;-86
2023/06/16 03:10:46;;;;;;;12.10;8.30;;;15.10;99.90;;;;;;4199749;28;20049;-86
2023/06/16 03:12:47;;;;;;;12.90;8.48;;;15.10;99.90;;;;;;4198995;28;20052;-87
2023/06/16 03:14:48;;;;;;;13.05;8.55;;;15.10;99.90;;;;;;4199942;28;20036;-87
2023/06/16 03:16:51;;;;;;;12.05;8.65;;;15.10;99.90;;;;;;4198758;28;20059;-86
2023/06/16 03:18:51;;;;;;;11.98;8.73;;;15.10;99.90;;;;;;4216965;28;20539;-86
2023/06/16 03:20:53;;;;;;;14.02;9.60;;;15.10;99.90;;;;;;4217427;28;20048;-86
2023/06/16 03:22:54;;;;;;;14.70;9.48;;;15.10;99.90;;;;;;4182523;28;20057;-86
2023/06/16 03:24:54;;;;;;;14.07;9.70;;;15.10;99.90;;;;;;4217422;28;20076;-87
2023/06/16 03:26:55;;;;;;;15.00;9.18;;;15.10;99.90;;;;;;4181650;28;20045;-86
2023/06/16 03:28:56;;;;;;;15.13;10.35;;;15.10;99.90;;;;;;4182896;28;20076;-86
2023/06/16 03:31:02;;;;;;;13.35;10.02;;;15.10;99.90;;;;;;4216520;28;20043;-87
2023/06/16 03:33:02;;;;;;;14.18;10.23;;;15.10;99.90;;;;;;4217104;28;20093;-86
2023/06/16 03:35:06;;;;;;;13.00;9.38;;;15.10;99.90;;;;;;4216931;28;20479;-86
2023/06/16 03:37:06;;;;;;;13.80;9.15;;;15.10;99.90;;;;;;4181584;28;20122;-87
2023/06/16 03:39:07;;;;;;;13.88;10.45;;;15.10;99.90;;;;;;4218153;28;20044;-86
2023/06/16 03:41:08;;;;;;;15.43;10.40;;;15.10;99.90;;;;;;4199608;28;20196;-86
2023/06/16 03:43:09;;;;;;;18.10;10.70;;;15.10;99.90;;;;;;4201390;28;20098;-87
2023/06/16 03:45:12;;;;;;;14.23;10.65;;;15.10;99.90;;;;;;4217459;28;20101;-86
2023/06/16 03:47:13;;;;;;;15.98;10.82;;;15.10;99.90;;;;;;4218897;28;20083;-87
2023/06/16 03:49:14;;;;;;;17.48;11.27;;;15.20;99.90;;;;;;4199734;28;20044;-87
2023/06/16 03:51:16;;;;;;;16.88;10.93;;;15.10;99.90;;;;;;4216453;28;20044;-87
2023/06/16 03:53:16;;;;;;;13.85;10.20;;;15.10;99.90;;;;;;4198856;28;20099;-87
2023/06/16 03:55:19;;;;;;;20.10;11.73;;;15.10;99.90;;;;;;4215496;28;20159;-86
2023/06/16 03:57:19;;;;;;;15.13;10.90;;;15.00;99.90;;;;;;4199090;28;20131;-85
2023/06/16 03:59:21;;;;;;;17.95;11.52;;;15.10;99.90;;;;;;4198820;28;20432;-86
2023/06/16 04:01:25;;;;;;;17.08;11.23;;;15.10;99.90;;;;;;4199729;28;20238;-87
2023/06/16 04:03:26;;;;;;;16.58;11.40;;;15.00;99.90;;;;;;4183173;28;20044;-87
2023/06/16 04:05:26;;;;;;;16.40;11.77;;;15.10;99.90;;;;;;4198668;28;20056;-87
2023/06/16 04:07:27;;;;;;;16.80;11.32;;;15.10;99.90;;;;;;4198936;28;20131;-86
2023/06/16 04:09:31;;;;;;;15.63;10.60;;;15.10;99.90;;;;;;4217457;28;20097;-86
2023/06/16 04:11:33;;;;;;;17.45;10.68;;;15.10;99.90;;;;;;4200421;28;20040;-86
2023/06/16 04:13:35;;;;;;;18.55;11.48;;;15.10;99.90;;;;;;4198272;28;20488;-87
2023/06/16 04:15:36;;;;;;;16.73;11.18;;;15.20;99.90;;;;;;4199439;28;20051;-86
2023/06/16 04:17:37;;;;;;;18.15;11.88;;;15.20;99.90;;;;;;4215440;28;20043;-86
2023/06/16 04:19:37;;;;;;;18.85;11.90;;;15.20;99.90;;;;;;4198466;28;20124;-85
2023/06/16 04:21:41;;;;;;;16.90;11.65;;;15.10;99.90;;;;;;4216796;28;20553;-87
2023/06/16 04:23:41;;;;;;;20.80;13.02;;;15.10;99.90;;;;;;4216899;28;20040;-87
2023/06/16 04:25:42;;;;;;;19.00;12.10;;;15.10;99.90;;;;;;4199803;28;20135;-86
2023/06/16 04:27:46;;;;;;;19.17;12.98;;;15.10;99.90;;;;;;4198756;28;20097;-86
2023/06/16 04:29:49;;;;;;;20.15;13.70;;;15.20;99.90;;;;;;4220055;28;20048;-86
2023/06/16 04:31:50;;;;;;;21.85;14.52;;;15.20;99.90;;;;;;4217714;28;20047;-86
2023/06/16 04:33:51;;;;;;;24.08;14.43;;;15.20;99.90;;;;;;4183046;28;20040;-86
2023/06/16 04:35:52;;;;;;;23.67;14.40;;;15.30;99.90;;;;;;4199665;28;20048;-87
2023/06/16 04:37:57;;;;;;;22.20;14.23;;;15.30;99.90;;;;;;4216381;28;20441;-86
2023/06/16 04:39:59;;;;;;;22.33;14.68;;;15.40;99.90;;;;;;4201858;28;20114;-85
2023/06/16 04:42:02;;;;;;;21.17;14.02;;;15.40;99.90;;;;;;4216142;28;20067;-86
2023/06/16 04:44:04;;;;;;;20.95;14.07;;;15.50;99.90;;;;;;4183192;28;20041;-86
2023/06/16 04:46:04;;;;;;;23.50;14.60;;;15.00;99.90;;;;;;4199524;28;20036;-86
2023/06/16 04:48:06;;;;;;;22.17;13.95;;;15.50;99.90;;;;;;4182679;28;20052;-86
2023/06/16 04:50:08;;;;;;;19.88;13.23;;;15.60;99.90;;;;;;4217360;28;20027;-86
2023/06/16 04:52:09;;;;;;;23.10;14.63;;;15.60;99.90;;;;;;4217019;28;20044;-87
2023/06/16 04:54:10;;;;;;;18.33;13.70;;;15.60;99.90;;;;;;4216138;28;20516;-86
2023/06/16 04:56:11;;;;;;;21.45;14.63;;;15.60;99.90;;;;;;4216173;28;20047;-86
2023/06/16 04:58:12;;;;;;;20.75;14.60;;;15.70;99.90;;;;;;4199048;28;20097;-86
2023/06/16 05:00:13;;;;;;;22.38;14.80;;;15.70;99.90;;;;;;4183450;28;20056;-92
2023/06/16 05:02:15;;;;;;;20.98;14.95;;;15.80;99.90;;;;;;4184496;28;20037;-92
2023/06/16 05:04:20;;;;;;;20.52;15.10;;;15.80;99.90;;;;;;4202075;28;20027;-93
2023/06/16 05:06:35;;;;;;;22.13;14.80;;;15.90;99.90;;;;;;4201453;28;20049;-93
2023/06/16 05:08:37;;;;;;;19.98;14.00;;;16.00;99.90;;;;;;4202171;28;20117;-92
2023/06/16 05:10:40;;;;;;;23.60;13.18;;;16.00;99.90;;;;;;4185686;28;20517;-93
2023/06/16 05:12:43;;;;;;;21.42;14.27;;;16.10;99.90;;;;;;4185178;28;20491;-93
2023/06/16 05:14:44;;;;;;;22.80;14.18;;;16.20;99.90;;;;;;4201528;28;20520;-92
2023/06/16 05:16:51;;;;;;;22.60;14.52;;;15.90;99.90;;;;;;4171690;28;20091;-92
2023/06/16 05:18:53;;;;;;;21.50;14.18;;;16.40;99.90;;;;;;4200380;28;20060;-92
2023/06/16 05:20:55;;;;;;;22.88;15.07;;;16.50;99.90;;;;;;4184494;28;20469;-93
2023/06/16 05:22:57;;;;;;;18.83;13.00;;;16.50;99.90;;;;;;4200159;28;20067;-93
2023/06/16 05:24:58;;;;;;;24.05;13.98;;;16.60;99.90;;;;;;4184325;28;20049;-93
2023/06/16 05:26:59;;;;;;;20.25;12.95;;;16.70;99.90;;;;;;4200728;28;20102;-93
2023/06/16 05:29:08;;;;;;;18.67;12.60;;;16.70;99.90;;;;;;4196141;28;20495;-93
2023/06/16 05:31:09;;;;;;;17.60;11.93;;;16.80;99.90;;;;;;4186552;28;20084;-93
2023/06/16 05:33:11;;;;;;;21.02;12.65;;;16.90;99.90;;;;;;4185306;28;20555;-91
2023/06/16 05:35:18;;;;;;;18.33;12.82;;;17.00;99.90;;;;;;4168857;28;20053;-92
2023/06/16 05:37:22;;;;;;;16.77;11.82;;;17.10;99.90;;;;;;4202655;28;20370;-93
2023/06/16 05:39:38;;;;;;;20.58;13.10;;;17.20;99.90;;;;;;4169049;28;20615;-93
2023/06/16 05:41:42;;;;;;;17.98;11.35;;;17.30;99.90;;;;;;4200777;28;20029;-94
2023/06/16 05:43:44;;;;;;;23.15;13.15;;;17.40;99.90;;;;;;4166844;28;20041;-91
2023/06/16 05:45:46;;;;;;;24.38;13.45;;;17.50;99.90;;;;;;4167814;28;20544;-91
2023/06/16 05:47:52;;;;;;;22.58;13.75;;;17.50;99.90;;;;;;4200379;28;20045;-90
2023/06/16 05:49:53;;;;;;;26.67;15.35;;;17.60;99.90;;;;;;4169976;28;20049;-88
2023/06/16 05:51:56;;;;;;;26.92;15.07;;;17.60;99.90;;;;;;4204047;28;20037;-89
2023/06/16 05:53:57;;;;;;;27.15;17.15;;;17.70;99.90;;;;;;4186881;28;20049;-88
2023/06/16 05:55:59;;;;;;;29.48;16.20;;;17.80;99.90;;;;;;4187505;28;20051;-89
2023/06/16 05:58:01;;;;;;;29.02;16.10;;;17.90;99.90;;;;;;4187039;28;20095;-92
2023/06/16 06:00:04;;;;;;;26.75;16.17;;;18.00;99.90;;;;;;4171645;28;20041;-92
2023/06/16 06:02:13;;;;;;;33.38;16.48;;;18.00;99.90;;;;;;4188593;28;20123;-92
2023/06/16 06:04:19;;;;;;;31.80;18.33;;;18.10;99.90;;;;;;4186684;28;20073;-91
2023/06/16 06:06:20;;;;;;;36.72;21.17;;;18.20;99.90;;;;;;4187945;28;20494;-92
2023/06/16 06:08:30;;;;;;;31.35;17.33;;;18.30;99.90;;;;;;4186469;28;20124;-92
2023/06/16 06:10:38;;;;;;;32.60;16.38;;;18.40;99.90;;;;;;4202427;28;20048;-92
2023/06/16 06:12:40;;;;;;;29.25;16.80;;;18.50;99.90;;;;;;4204451;28;20029;-92
2023/06/16 06:14:43;;;;;;;29.92;15.32;;;18.60;99.90;;;;;;4187277;28;20044;-91
2023/06/16 06:16:49;;;;;;;26.27;13.68;;;18.70;99.90;;;;;;4188006;28;20045;-92
2023/06/16 06:18:50;;;;;;;25.73;12.70;;;18.80;99.90;;;;;;4187885;28;20041;-92
2023/06/16 06:20:57;;;;;;;22.55;12.18;;;18.80;99.90;;;;;;4219521;28;20047;-91
2023/06/16 06:22:58;;;;;;;18.80;9.80;;;18.90;99.90;;;;;;4186824;28;20036;-91
2023/06/16 06:24:59;;;;;;;21.52;9.48;;;19.00;99.90;;;;;;4202703;28;20045;-93
2023/06/16 06:27:04;;;;;;;15.60;8.52;;;19.00;99.90;;;;;;4187447;28;20037;-92
2023/06/16 06:29:08;;;;;;;20.23;8.27;;;19.10;99.90;;;;;;4221990;28;20086;-91
2023/06/16 06:31:09;;;;;;;18.70;8.18;;;19.20;99.90;;;;;;4186127;28;20092;-91
2023/06/16 06:33:12;;;;;;;11.73;7.72;;;19.30;99.90;;;;;;4203806;28;20040;-93
2023/06/16 06:35:13;;;;;;;13.13;7.47;;;19.40;99.90;;;;;;4203494;28;20048;-91
2023/06/16 06:37:18;;;;;;;11.95;7.10;;;19.50;99.90;;;;;;4186846;28;20044;-92
2023/06/16 06:39:19;;;;;;;12.82;7.05;;;19.50;99.90;;;;;;4204047;28;20052;-91
2023/06/16 06:41:27;;;;;;;11.35;7.25;;;19.60;99.90;;;;;;4204021;28;20045;-91
2023/06/16 06:43:29;;;;;;;10.25;6.45;;;19.80;99.90;;;;;;4222771;28;20488;-92
2023/06/16 06:45:32;;;;;;;10.60;7.25;;;19.80;99.90;;;;;;4220814;28;20051;-91
2023/06/16 06:47:39;;;;;;;12.48;6.63;;;19.90;99.90;;;;;;4187619;28;20033;-91
2023/06/16 06:49:49;;;;;;;7.40;5.78;;;20.00;99.90;;;;;;4186961;28;20052;-91
2023/06/16 06:51:51;;;;;;;9.10;5.78;;;20.10;99.90;;;;;;4188176;28;20072;-92
2023/06/16 06:53:54;;;;;;;9.52;6.13;;;20.20;99.90;;;;;;4186507;28;20106;-93
2023/06/16 06:55:55;;;;;;;8.80;5.57;;;20.30;99.90;;;;;;4184163;28;20112;-92
2023/06/16 06:57:55;;;;;;;11.32;5.47;;;20.40;99.90;;;;;;4186927;28;20044;-92
2023/06/16 06:59:57;;;;;;;7.22;5.38;;;20.50;99.90;;;;;;4187899;28;20037;-92
2023/06/16 07:02:00;;;;;;;8.80;5.30;;;20.50;99.90;;;;;;4197132;28;20048;-92
2023/06/16 07:04:06;;;;;;;9.63;5.30;;;20.60;99.90;;;;;;4196143;28;20049;-91
2023/06/16 07:06:07;;;;;;;8.15;4.65;;;20.70;99.90;;;;;;4195945;28;20048;-91
2023/06/16 07:08:08;;;;;;;6.90;4.75;;;20.80;99.90;;;;;;4212960;28;20092;-91
2023/06/16 07:10:10;;;;;;;7.35;4.63;;;20.80;99.90;;;;;;4197817;28;20406;-92
2023/06/16 07:12:12;;;;;;;7.10;4.38;;;20.90;99.90;;;;;;4213488;28;20040;-91
2023/06/16 07:14:14;;;;;;;6.53;4.72;;;21.00;99.90;;;;;;4231642;28;20089;-90
2023/06/16 07:16:15;;;;;;;6.18;4.20;;;21.10;99.90;;;;;;4213900;28;20039;-91
2023/06/16 07:18:17;;;;;;;6.65;4.53;;;21.20;99.90;;;;;;4214950;28;20072;-91
2023/06/16 07:20:17;;;;;;;8.05;5.00;;;21.20;99.90;;;;;;4213519;28;20049;-92
2023/06/16 07:22:19;;;;;;;7.82;4.68;;;21.40;99.90;;;;;;4213521;28;20029;-91
2023/06/16 07:24:21;;;;;;;7.43;4.55;;;21.50;99.90;;;;;;4196157;28;20057;-91
2023/06/16 07:26:22;;;;;;;7.35;4.38;;;21.50;99.90;;;;;;4196840;28;20059;-91
2023/06/16 07:28:24;;;;;;;8.02;3.63;;;21.60;99.90;;;;;;4212530;28;20052;-91
2023/06/16 07:30:24;;;;;;;5.88;4.43;;;21.60;99.90;;;;;;4194736;28;20045;-91
2023/06/16 07:32:25;;;;;;;7.57;3.90;;;21.70;99.90;;;;;;4196801;28;20066;-91
2023/06/16 07:34:26;;;;;;;7.55;3.80;;;21.80;99.90;;;;;;4197447;28;20064;-92
2023/06/16 07:36:30;;;;;;;6.85;3.90;;;21.90;99.90;;;;;;4199489;28;20025;-91
2023/06/16 07:38:32;;;;;;;6.35;3.75;;;22.00;99.90;;;;;;4198006;28;20036;-92
2023/06/16 07:40:32;;;;;;;5.00;3.47;;;22.10;99.90;;;;;;4198161;28;20033;-92
2023/06/16 07:42:35;;;;;;;5.85;3.75;;;22.10;99.90;;;;;;4213216;28;20052;-91
2023/06/16 07:44:37;;;;;;;6.30;4.05;;;22.20;99.90;;;;;;4230272;28;20085;-91
2023/06/16 07:46:40;;;;;;;5.05;2.88;;;22.30;99.90;;;;;;4198115;28;20044;-93
2023/06/16 07:48:40;;;;;;;8.77;3.28;;;22.40;99.90;;;;;;4215144;28;20048;-92
2023/06/16 07:50:43;;;;;;;5.55;3.30;;;22.50;99.90;;;;;;4198245;28;20052;-93
2023/06/16 07:52:45;;;;;;;6.93;3.10;;;22.60;99.90;;;;;;4198648;28;20052;-91
2023/06/16 07:54:47;;;;;;;4.32;3.08;;;22.10;99.90;;;;;;4194893;28;20049;-91
2023/06/16 07:56:48;;;;;;;4.05;2.65;;;22.80;99.90;;;;;;4185636;28;20138;-91
2023/06/16 07:58:49;;;;;;;5.53;2.55;;;23.00;99.90;;;;;;4203104;28;20076;-91
2023/06/16 08:00:51;;;;;;;5.55;1.92;;;23.00;99.90;;;;;;4186695;28;20056;-91
2023/06/16 08:02:52;;;;;;;4.90;1.90;;;23.10;99.50;;;;;;4184309;28;20045;-92
2023/06/16 08:04:55;;;;;;;3.33;2.40;;;23.20;98.40;;;;;;4186069;28;20397;-92
2023/06/16 08:07:03;;;;;;;3.88;2.35;;;23.30;97.50;;;;;;4184852;28;20096;-93
2023/06/16 08:09:06;;;;;;;3.38;1.80;;;23.40;96.80;;;;;;4235985;28;20459;-92
2023/06/16 08:11:09;;;;;;;4.60;2.10;;;23.50;97.00;;;;;;4202101;28;20044;-92
2023/06/16 08:13:09;;;;;;;3.47;2.10;;;23.60;95.90;;;;;;4220301;28;20142;-91
2023/06/16 08:15:10;;;;;;;3.40;2.05;;;23.60;94.70;;;;;;4207956;28;20048;-92
2023/06/16 08:17:20;;;;;;;3.28;1.80;;;23.70;93.60;;;;;;4204753;28;20108;-92
2023/06/16 08:19:21;;;;;;;2.28;1.73;;;23.80;91.90;;;;;;4188150;28;20053;-92
2023/06/16 08:21:46;;;;;;;5.57;1.70;;;24.00;92.20;;;;;;4186397;28;20045;-92
2023/06/16 08:23:53;;;;;;;3.58;1.50;;;24.10;86.60;;;;;;4184904;28;20049;-92
2023/06/16 08:25:57;;;;;;;4.38;2.70;;;24.10;86.80;;;;;;4206184;28;20052;-93
2023/06/16 08:28:07;;;;;;;4.32;1.58;;;;;;;;;;4205006;28;20052;-94
2023/06/16 08:30:09;;;;;;;3.63;1.40;;;24.20;86.10;;;;;;4201957;28;20084;-89
2023/06/16 08:32:11;;;;;;;3.80;1.63;;;24.50;83.20;;;;;;4205958;28;20044;-90
2023/06/16 08:34:21;;;;;;;4.32;1.60;;;24.70;82.60;;;;;;4202086;28;20076;-89
2023/06/16 08:36:24;;;;;;;5.63;1.60;;;24.80;81.20;;;;;;4186970;28;20093;-87
2023/06/16 08:38:25;;;;;;;4.50;1.35;;;25.00;80.50;;;;;;4202440;28;20059;-88
2023/06/16 08:40:32;;;;;;;3.42;1.48;;;25.00;79.90;;;;;;4186749;28;20102;-88
2023/06/16 08:42:36;;;;;;;2.25;1.23;;;25.10;79.40;;;;;;4188879;28;20186;-88
2023/06/16 08:44:38;;;;;;;3.60;1.40;;;25.30;79.10;;;;;;4202516;28;20520;-88
2023/06/16 08:46:39;;;;;;;2.35;1.30;;;25.40;78.30;;;;;;4203110;28;20564;-88
2023/06/16 08:48:43;;;;;;;2.97;1.60;;;25.60;77.70;;;;;;4203138;28;20036;-88
2023/06/16 08:50:46;;;;;;;2.35;1.38;;;25.70;76.10;;;;;;4185028;28;20553;-88
2023/06/16 08:52:48;;;;;;;2.85;1.40;;;25.80;75.10;;;;;;4203111;28;20051;-88
2023/06/16 08:54:57;;;;;;;3.15;1.42;;;25.80;75.10;;;;;;4185902;28;20041;-88
2023/06/16 08:57:01;;;;;;;2.67;1.60;;;25.90;75.50;;;;;;4202680;28;20190;-88
2023/06/16 08:59:03;;;;;;;3.90;1.40;;;26.10;75.20;;;;;;4202436;28;20055;-88
2023/06/16 09:01:06;;;;;;;4.25;1.60;;;26.10;74.30;;;;;;4200905;28;20053;-88
2023/06/16 09:03:08;;;;;;;3.00;1.50;;;26.20;73.90;;;;;;4186395;28;20476;-88
2023/06/16 09:05:10;;;;;;;4.72;1.63;;;26.20;74.60;;;;;;4201899;28;20052;-87
2023/06/16 09:07:15;;;;;;;2.17;1.40;;;26.50;74.40;;;;;;4203752;28;20048;-87
2023/06/16 09:09:17;;;;;;;3.03;1.42;;;26.50;73.90;;;;;;4186886;28;20075;-88
2023/06/16 09:11:23;;;;;;;3.33;2.03;;;26.70;73.30;;;;;;4203805;28;20055;-88
2023/06/16 09:13:26;;;;;;;5.82;1.73;;;26.80;71.60;;;;;;4204732;28;20056;-89
2023/06/16 09:15:27;;;;;;;3.65;1.40;;;26.90;72.00;;;;;;4184774;28;20055;-88
2023/06/16 09:17:29;;;;;;;4.00;1.45;;;27.00;71.90;;;;;;4186280;28;20076;-88
2023/06/16 09:19:35;;;;;;;1.50;1.20;;;27.00;71.20;;;;;;4202896;28;20051;-88
2023/06/16 09:21:37;;;;;;;2.80;2.05;;;27.20;70.80;;;;;;4185354;28;20049;-88
2023/06/16 09:23:42;;;;;;;6.10;2.13;;;27.30;70.70;;;;;;4202586;28;20060;-87
2023/06/16 09:25:52;;;;;;;4.13;1.25;;;27.30;69.50;;;;;;4202188;28;20120;-88
2023/06/16 09:27:54;;;;;;;4.45;1.30;;;27.40;68.70;;;;;;4206439;28;20449;-89
2023/06/16 09:30:01;;;;;;;5.25;1.38;;;27.60;69.20;;;;;;4204442;28;20056;-88
2023/06/16 09:32:10;;;;;;;6.70;1.48;;;27.70;68.70;;;;;;4201688;28;20059;-87
2023/06/16 09:34:11;;;;;;;3.28;1.52;;;27.80;67.50;;;;;;4219177;28;20032;-88
2023/06/16 09:36:27;;;;;;;1.95;1.40;;;28.00;68.30;;;;;;4184062;28;20131;-87
2023/06/16 09:38:35;;;;;;;4.20;2.03;;;28.20;66.20;;;;;;4184450;28;20041;-88
2023/06/16 09:40:38;;;;;;;6.53;1.30;;;28.20;66.90;;;;;;4202451;28;20070;-87
2023/06/16 09:42:44;;;;;;;1.98;1.33;;;28.10;67.00;;;;;;4183876;28;20041;-88
2023/06/16 09:44:48;;;;;;;2.22;1.27;;;28.20;65.80;;;;;;4202166;28;20454;-88
2023/06/16 09:46:49;;;;;;;3.97;1.85;;;28.40;65.30;;;;;;4201851;28;20074;-87
2023/06/16 09:48:53;;;;;;;3.15;1.30;;;28.60;65.30;;;;;;4200845;28;20088;-87
2023/06/16 09:50:58;;;;;;;3.17;1.50;;;28.70;63.40;;;;;;4203497;28;20054;-88
2023/06/16 09:53:04;;;;;;;3.22;1.27;;;28.80;63.30;;;;;;4200498;28;20057;-87
2023/06/16 09:55:08;;;;;;;1.70;1.25;;;28.70;61.20;;;;;;4203814;28;20082;-87
2023/06/16 09:57:12;;;;;;;5.15;1.40;;;28.70;61.80;;;;;;4202534;28;20037;-87
2023/06/16 09:59:13;;;;;;;2.00;1.40;;;28.70;61.50;;;;;;4201092;28;20070;-88
2023/06/16 10:01:19;;;;;;;3.15;1.73;;;28.70;61.90;;;;;;4219798;28;20479;-89
2023/06/16 10:03:20;;;;;;;7.35;1.60;;;28.70;61.00;;;;;;4202385;28;20431;-88
2023/06/16 10:05:22;;;;;;;3.95;1.40;;;28.70;60.30;;;;;;4203548;28;20072;-88
2023/06/16 10:07:24;;;;;;;4.05;1.55;;;28.80;60.00;;;;;;4201939;28;20079;-87
2023/06/16 10:09:32;;;;;;;3.65;1.50;;;29.00;59.40;;;;;;4204286;28;20116;-87
2023/06/16 10:11:35;;;;;;;2.58;1.52;;;29.10;58.70;;;;;;4201501;28;20512;-87
2023/06/16 10:13:44;;;;;;;4.95;1.38;;;29.20;58.80;;;;;;4201869;28;20055;-87
2023/06/16 10:15:48;;;;;;;2.83;1.48;;;29.40;58.60;;;;;;4169967;28;20488;-88
2023/06/16 10:17:51;;;;;;;3.53;1.23;;;29.30;57.80;;;;;;4200765;28;20044;-88
2023/06/16 10:19:54;;;;;;;2.78;1.33;;;29.50;56.70;;;;;;4201875;28;20119;-87
2023/06/16 10:21:55;;;;;;;3.45;1.40;;;29.50;56.70;;;;;;4201596;28;20381;-87
2023/06/16 10:24:01;;;;;;;3.70;1.40;;;29.50;55.60;;;;;;4202183;28;20050;-87
2023/06/16 10:26:05;;;;;;;3.63;1.85;;;29.60;55.50;;;;;;4184701;28;20044;-87
2023/06/16 10:28:11;;;;;;;3.40;1.42;;;29.70;54.50;;;;;;4201713;28;20041;-87
2023/06/16 10:30:16;;;;;;;2.53;1.38;;;29.70;54.90;;;;;;4201769;28;20048;-87
2023/06/16 10:32:21;;;;;;;2.80;1.40;;;29.90;54.40;;;;;;4202309;28;20048;-88
2023/06/16 10:34:24;;;;;;;3.42;1.50;;;30.10;53.60;;;;;;4201440;28;20048;-87